• Join FlightAware (Why Join?)
  • Login
  • US Flag 
04:03PM EDT


 

Airport Tracker/Info


-or-


 

Live Flight TrackerFlight Track Log ✈ SWA2130 ✈ 30-Apr-2013 ✈ KSFO - KLAX

Flight Track Log - Related Links

Times and Time Zones

All times are in EDT time to prevent confusion due to time zone crossing. See the SWA2130 flight status page for this flight to view local times or setup timezone preferences in your user account.

Time Position Orientation Groundspeed Altitude Reporting Facility
EDT Latitude Longitude Course Direction KTS MPH feet Rate Location/Type
07:05PM 37.6442 -122.3692 North 150 173 1,600  Level Oakland Center
07:06PM 37.6947 -122.3683 North 192 221 4,300 2,880 Climbing Oakland Center
07:06PM 37.7000 -122.4000 282° West 233 268 5,400 3,300 Climbing Northern Cal TRACON
07:07PM 37.6667 -122.4500 230° Southwest 296 341 8,500 3,120 Climbing Northern Cal TRACON
07:08PM 37.6050 -122.4469 178° South 292 336 11,000 2,640 Climbing Oakland Center
07:09PM 37.5197 -122.4006 157° South 325 374 13,300 2,820 Climbing Oakland Center
07:10PM 37.4444 -122.3072 135° Southeast 376 433 16,800 3,480 Climbing Oakland Center
07:11PM 37.3700 -122.2061 133° Southeast 392 451 20,500 3,240 Climbing Oakland Center
07:12PM 37.2922 -122.1025 133° Southeast 404 465 23,500 2,700 Climbing Oakland Center
07:13PM 37.2100 -121.9942 134° Southeast 424 488 26,100 2,700 Climbing Oakland Center
07:14PM 37.1075 -121.8583 133° Southeast 447 514 29,000 2,280 Climbing Oakland Center
07:16PM 36.9297 -121.6253 134° Southeast 468 539 33,100 1,980 Climbing Oakland Center
07:17PM 36.8389 -121.5058 134° Southeast 473 544 35,200 1,920 Climbing Oakland Center
07:18PM 36.7514 -121.3903 133° Southeast 471 542 37,100 1,740 Climbing Oakland Center
07:19PM 36.6614 -121.2731 134° Southeast 468 539 38,800 1,440 Climbing Oakland Center
07:20PM 36.5711 -121.1558 134° Southeast 469 540 40,100 1,020 Climbing Oakland Center
07:21PM 36.4811 -121.0392 134° Southeast 468 539 40,900 240 Climbing Oakland Center
07:22PM 36.3931 -120.9247 134° Southeast 460 529 40,700 -660 Descending Oakland Center
07:23PM 36.2864 -120.7844 133° Southeast 465 535 39,600 -840 Descending Oakland Center
07:24PM 36.1953 -120.6719 135° Southeast 464 534 39,000 -300 Descending Oakland Center
07:25PM 36.1061 -120.5575 134° Southeast 461 531 39,000  Level Oakland Center
07:26PM 36.0164 -120.4442 134° Southeast 460 529 39,000  Level Oakland Center
07:27PM 35.9278 -120.3308 134° Southeast 457 526 39,000  Level Oakland Center
07:28PM 35.8394 -120.2192 134° Southeast 454 522 39,000  Level Oakland Center
07:29PM 35.7481 -120.1044 134° Southeast 461 531 39,000  Level Oakland Center
07:30PM 35.6561 -119.9892 134° Southeast 468 539 39,000  Level Oakland Center
07:31PM 35.5511 -119.8933 143° Southeast 467 537 39,000  Level Oakland Center
07:32PM 35.4456 -119.8036 145° Southeast 460 529 39,000 -180 Level Oakland Center
07:33PM 35.3408 -119.7133 145° Southeast 458 527 38,700 -480 Descending Oakland Center
07:34PM 35.3019 -119.6803 145° Southeast 450 518 38,400 -840 Descending Los Angeles Center
07:35PM 35.2008 -119.5939 145° Southeast 442 509 37,500 -1,440 Descending Los Angeles Center
07:36PM 35.0781 -119.4897 145° Southeast 446 513 35,500 -2,520 Descending Los Angeles Center
07:37PM 34.9681 -119.4139 151° Southeast 458 527 32,300 -2,880 Descending Los Angeles Center
07:38PM 34.8472 -119.3728 164° South 452 520 29,600 -2,640 Descending Los Angeles Center
07:39PM 34.7397 -119.3039 152° Southeast 443 510 26,900 -2,520 Descending Los Angeles Center
07:40PM 34.6522 -119.2042 137° Southeast 432 497 24,500 -2,280 Descending Los Angeles Center
07:41PM 34.5658 -119.1153 140° Southeast 418 481 22,200 -2,460 Descending Los Angeles Center
07:42PM 34.4686 -119.0036 137° Southeast 395 455 19,500 -2,460 Descending Los Angeles Center
07:43PM 34.3894 -118.9161 138° Southeast 387 445 17,200 -2,280 Descending Los Angeles Center
07:44PM 34.3000 -118.8597 152° Southeast 367 422 14,900 -2,160 Descending Los Angeles Center
07:45PM 34.2058 -118.8253 163° South 355 409 12,800 -1,440 Descending Los Angeles Center
07:46PM 34.1208 -118.7789 156° South 341 392 12,000 -1,080 Descending Los Angeles Center
07:47PM 34.0808 -118.6647 113° Southeast 327 376 10,600 -1,320 Descending Los Angeles Center
07:48PM 34.0458 -118.5619 112° Southeast 312 359 9,300 -1,500 Descending Los Angeles Center
07:49PM 34.0153 -118.4697 112° Southeast 296 341 7,500 -1,620 Descending Los Angeles Center
07:50PM 34.0167 -118.3947 89° East 293 337 6,100 -1,260 Descending Los Angeles Center
07:51PM 34.0286 -118.2861 82° East 279 321 5,000 -960 Descending Los Angeles Center
07:52PM 34.0386 -118.2108 81° East 243 280 4,200 -960 Descending Los Angeles Center
07:53PM 34.0442 -118.1397 85° East 218 251 3,100 -1,260 Descending Los Angeles Center
07:54PM 34.0333 -118.1000 108° East 229 264 2,600 -420 Descending Southern California TRACON
07:55PM 33.9833 -118.1333 209° Southwest 195 224 2,600  Level Southern California TRACON
07:56PM 33.9761 -118.1700 257° West 197 227 2,600  Level Los Angeles Center
07:57PM 33.9694 -118.2336 263° West 193 222 2,600 -420 Level Los Angeles Center
07:58PM 33.9642 -118.2956 264° West 191 220 1,800 -780 Descending Los Angeles Center
07:59PM 33.9583 -118.3481 262° West 174 200 1,000 -780 Descending Los Angeles Center
08:00PM 33.9531 -118.3969 263° West 137 158 200 -780 Descending Los Angeles Center
08:02PM 33.9333 -118.4000 260° West  Level FlightAware Approximate